Time;durP1;ratioP1;P1;durP2;ratioP2;P2;SDS_P1;SDS_P2;PMS_P1;PMS_P2;Temp;Humidity;BMP_temperature;BMP_pressure;BME280_temperature;BME280_humidity;BME280_pressure;Samples;Min_cycle;Max_cycle;Signal;HPM_P1;HPM_P2
2020/12/23 16:22:36;;;;;;;0;0;;;;;;;0;0;0;;;;
2020/12/23 16:23:37;;;;;;;0;0;;;;;;;0;0;0;;;;
2020/12/23 16:24:37;;;;;;;0;0;;;;;;;0;0;0;;;;
2020/12/23 16:25:38;;;;;;;0;0;;;;;;;0;0;0;;;;
2020/12/23 16:26:39;;;;;;;0;0;;;;;;;0;0;0;;;;
2020/12/23 16:27:39;;;;;;;0;0;;;;;;;0;0;0;;;;
2020/12/23 16:28:40;;;;;;;0;0;;;;;;;0;0;0;;;;
2020/12/23 16:29:41;;;;;;;0;0;;;;;;;0;0;0;;;;
2020/12/23 16:30:41;;;;;;;0;0;;;;;;;0;0;0;;;;
2020/12/23 16:31:42;;;;;;;0;0;;;;;;;0;0;0;;;;
2020/12/23 16:32:43;;;;;;;0;0;;;;;;;0;0;0;;;;
2020/12/23 16:33:43;;;;;;;0;0;;;;;;;0;0;0;;;;
2020/12/23 16:34:44;;;;;;;0;0;;;;;;;0;0;0;;;;
2020/12/23 16:35:45;;;;;;;0;0;;;;;;;0;0;0;;;;
2020/12/23 16:36:45;;;;;;;0;0;;;;;;;0;0;0;;;;
2020/12/23 16:37:47;;;;;;;0;0;;;;;;;0;0;0;;;;
2020/12/23 16:38:47;;;;;;;0;0;;;;;;;0;0;0;;;;
2020/12/23 16:39:48;;;;;;;0;0;;;;;;;0;0;0;;;;
2020/12/23 16:40:48;;;;;;;0;0;;;;;;;0;0;0;;;;
2020/12/23 16:41:49;;;;;;;0;0;;;;;;;0;0;0;;;;
2020/12/23 16:42:50;;;;;;;0;0;;;;;;;0;0;0;;;;
2020/12/23 16:43:50;;;;;;;0;0;;;;;;;0;0;0;;;;
2020/12/23 16:44:52;;;;;;;0;0;;;;;;;0;0;0;;;;
2020/12/23 16:45:53;;;;;;;0;0;;;;;;;0;0;0;;;;
2020/12/23 16:46:53;;;;;;;0;0;;;;;;;0;0;0;;;;
2020/12/23 16:47:54;;;;;;;0;0;;;;;;;0;0;0;;;;
2020/12/23 16:48:55;;;;;;;0;0;;;;;;;0;0;0;;;;
2020/12/23 16:49:55;;;;;;;0;0;;;;;;;0;0;0;;;;
2020/12/23 16:50:56;;;;;;;0;0;;;;;;;0;0;0;;;;
2020/12/23 16:51:56;;;;;;;0;0;;;;;;;0;0;0;;;;
2020/12/23 16:52:57;;;;;;;3.5;2.55;;;;;;;20.48;55.29297;94965.05;;;;
2020/12/23 16:53:58;;;;;;;3.5;2.55;;;;;;;20.48;55.29297;94965.05;;;;
2020/12/23 16:54:58;;;;;;;3.5;2.55;;;;;;;20.48;55.29297;94965.05;;;;
2020/12/23 16:55:59;;;;;;;3.5;2.55;;;;;;;20.48;55.29297;94965.05;;;;
2020/12/23 16:57:01;;;;;;;3.5;2.55;;;;;;;20.48;55.29297;94965.05;;;;
2020/12/23 16:58:02;;;;;;;3.5;2.55;;;;;;;20.48;55.29297;94965.05;;;;
2020/12/23 16:59:02;;;;;;;3.5;2.55;;;;;;;20.48;55.29297;94965.05;;;;
2020/12/23 17:00:03;;;;;;;3.5;2.55;;;;;;;20.48;55.29297;94965.05;;;;
2020/12/23 17:01:04;;;;;;;3.5;2.55;;;;;;;20.48;55.29297;94965.05;;;;
2020/12/23 17:02:09;;;;;;;3.5;2.55;;;;;;;20.48;55.29297;94965.05;;;;
2020/12/23 17:03:10;;;;;;;2.95;2.2;;;;;;;20.61;54.83594;94962.86;;;;
2020/12/23 17:04:11;;;;;;;2.95;2.2;;;;;;;20.61;54.83594;94962.86;;;;
2020/12/23 17:05:11;;;;;;;2.95;2.2;;;;;;;20.61;54.83594;94962.86;;;;
2020/12/23 17:06:12;;;;;;;2.95;2.2;;;;;;;20.61;54.83594;94962.86;;;;
2020/12/23 17:07:12;;;;;;;2.95;2.2;;;;;;;20.61;54.83594;94962.86;;;;
2020/12/23 17:08:13;;;;;;;2.95;2.2;;;;;;;20.61;54.83594;94962.86;;;;
2020/12/23 17:09:13;;;;;;;2.95;2.2;;;;;;;20.61;54.83594;94962.86;;;;
2020/12/23 17:10:14;;;;;;;2.95;2.2;;;;;;;20.61;54.83594;94962.86;;;;
2020/12/23 17:11:15;;;;;;;2.95;2.2;;;;;;;20.61;54.83594;94962.86;;;;
2020/12/23 17:12:15;;;;;;;2.95;2.2;;;;;;;20.61;54.83594;94962.86;;;;
2020/12/23 17:13:18;;;;;;;2.95;2.2;;;;;;;20.61;54.83594;94962.86;;;;
2020/12/23 17:14:19;;;;;;;3.7;2.35;;;;;;;20.71;54.4082;94963.05;;;;
2020/12/23 17:15:19;;;;;;;3.7;2.35;;;;;;;20.71;54.4082;94963.05;;;;
2020/12/23 17:16:20;;;;;;;3.7;2.35;;;;;;;20.71;54.4082;94963.05;;;;
2020/12/23 17:17:21;;;;;;;3.7;2.35;;;;;;;20.71;54.4082;94963.05;;;;
2020/12/23 17:18:21;;;;;;;3.7;2.35;;;;;;;20.71;54.4082;94963.05;;;;
2020/12/23 17:19:22;;;;;;;3.7;2.35;;;;;;;20.71;54.4082;94963.05;;;;
2020/12/23 17:20:23;;;;;;;3.7;2.35;;;;;;;20.71;54.4082;94963.05;;;;
2020/12/23 17:21:23;;;;;;;3.7;2.35;;;;;;;20.71;54.4082;94963.05;;;;
2020/12/23 17:22:26;;;;;;;3.7;2.35;;;;;;;20.71;54.4082;94963.05;;;;
2020/12/23 17:23:26;;;;;;;3.7;2.35;;;;;;;20.71;54.4082;94963.05;;;;
2020/12/23 17:24:27;;;;;;;3.9;2.6;;;;;;;20.75;54.64551;94964.29;;;;
2020/12/23 17:25:27;;;;;;;3.9;2.6;;;;;;;20.75;54.64551;94964.29;;;;
2020/12/23 17:26:28;;;;;;;3.9;2.6;;;;;;;20.75;54.64551;94964.29;;;;
2020/12/23 17:27:31;;;;;;;3.9;2.6;;;;;;;20.75;54.64551;94964.29;;;;
2020/12/23 17:28:32;;;;;;;3.9;2.6;;;;;;;20.75;54.64551;94964.29;;;;
2020/12/23 17:29:32;;;;;;;3.9;2.6;;;;;;;20.75;54.64551;94964.29;;;;
2020/12/23 17:30:33;;;;;;;3.9;2.6;;;;;;;20.75;54.64551;94964.29;;;;
2020/12/23 17:31:33;;;;;;;3.9;2.6;;;;;;;20.75;54.64551;94964.29;;;;
2020/12/23 17:32:34;;;;;;;3.9;2.6;;;;;;;20.75;54.64551;94964.29;;;;
2020/12/23 17:33:35;;;;;;;3.9;2.6;;;;;;;20.75;54.64551;94964.29;;;;
2020/12/23 17:34:35;;;;;;;3.9;2.6;;;;;;;20.75;54.64551;94964.29;;;;
2020/12/23 17:35:36;;;;;;;3.9;2.6;;;;;;;20.75;54.64551;94964.29;;;;
2020/12/23 17:36:36;;;;;;;3.9;2.6;;;;;;;20.75;54.64551;94964.29;;;;
2020/12/23 17:37:37;;;;;;;3.9;2.6;;;;;;;20.75;54.64551;94964.29;;;;
2020/12/23 17:38:40;;;;;;;3.9;2.6;;;;;;;20.75;54.64551;94964.29;;;;
2020/12/23 17:39:40;;;;;;;3.9;2.6;;;;;;;20.75;54.64551;94964.29;;;;
2020/12/23 17:40:41;;;;;;;3.9;2.6;;;;;;;20.75;54.64551;94964.29;;;;
2020/12/23 17:41:41;;;;;;;3.9;2.6;;;;;;;20.75;54.64551;94964.29;;;;
2020/12/23 17:42:44;;;;;;;3.9;2.6;;;;;;;20.75;54.64551;94964.29;;;;
2020/12/23 17:43:45;;;;;;;3.9;2.6;;;;;;;20.75;54.64551;94964.29;;;;
2020/12/23 17:44:46;;;;;;;3.9;2.6;;;;;;;20.75;54.64551;94964.29;;;;
2020/12/23 17:45:46;;;;;;;4.8;2.65;;;;;;;20.92;54.83008;94963.44;;;;
2020/12/23 17:46:51;;;;;;;4.8;2.65;;;;;;;20.92;54.83008;94963.44;;;;
2020/12/23 17:47:52;;;;;;;4.8;2.65;;;;;;;20.92;54.83008;94963.44;;;;
2020/12/23 17:48:52;;;;;;;4.8;2.65;;;;;;;20.92;54.83008;94963.44;;;;
2020/12/23 17:49:54;;;;;;;4.8;2.65;;;;;;;20.92;54.83008;94963.44;;;;
2020/12/23 17:50:54;;;;;;;4.8;2.65;;;;;;;20.92;54.83008;94963.44;;;;
2020/12/23 17:51:54;;;;;;;4.8;2.65;;;;;;;20.92;54.83008;94963.44;;;;
2020/12/23 17:52:59;;;;;;;4.8;2.65;;;;;;;20.92;54.83008;94963.44;;;;
2020/12/23 17:53:59;;;;;;;4.8;2.65;;;;;;;20.92;54.83008;94963.44;;;;
2020/12/23 17:55:02;;;;;;;4.8;2.65;;;;;;;20.92;54.83008;94963.44;;;;
2020/12/23 17:56:03;;;;;;;4.8;2.65;;;;;;;20.92;54.83008;94963.44;;;;
2020/12/23 17:57:08;;;;;;;4.9;3.1;;;;;;;20.93;54.74414;94960.38;;;;
2020/12/23 17:58:09;;;;;;;4.9;3.1;;;;;;;20.93;54.74414;94960.38;;;;
2020/12/23 17:59:10;;;;;;;4.9;3.1;;;;;;;20.93;54.74414;94960.38;;;;
2020/12/23 18:00:10;;;;;;;4.9;3.1;;;;;;;20.93;54.74414;94960.38;;;;
2020/12/23 18:01:11;;;;;;;4.9;3.1;;;;;;;20.93;54.74414;94960.38;;;;
2020/12/23 18:02:11;;;;;;;4.9;3.1;;;;;;;20.93;54.74414;94960.38;;;;
2020/12/23 18:03:12;;;;;;;4.9;3.1;;;;;;;20.93;54.74414;94960.38;;;;
2020/12/23 18:04:12;;;;;;;4.9;3.1;;;;;;;20.93;54.74414;94960.38;;;;
2020/12/23 18:05:13;;;;;;;4.9;3.1;;;;;;;20.93;54.74414;94960.38;;;;
2020/12/23 18:06:14;;;;;;;4.9;3.1;;;;;;;20.93;54.74414;94960.38;;;;
2020/12/23 18:07:15;;;;;;;5.200001;3.05;;;;;;;20.96;54.7373;94953.3;;;;
2020/12/23 18:08:15;;;;;;;5.200001;3.05;;;;;;;20.96;54.7373;94953.3;;;;
2020/12/23 18:09:16;;;;;;;5.200001;3.05;;;;;;;20.96;54.7373;94953.3;;;;
2020/12/23 18:10:16;;;;;;;5.200001;3.05;;;;;;;20.96;54.7373;94953.3;;;;
2020/12/23 18:11:17;;;;;;;5.200001;3.05;;;;;;;20.96;54.7373;94953.3;;;;
2020/12/23 18:12:18;;;;;;;5.200001;3.05;;;;;;;20.96;54.7373;94953.3;;;;
2020/12/23 18:13:19;;;;;;;5.200001;3.05;;;;;;;20.96;54.7373;94953.3;;;;
2020/12/23 18:14:20;;;;;;;5.200001;3.05;;;;;;;20.96;54.7373;94953.3;;;;
2020/12/23 18:15:20;;;;;;;5.200001;3.05;;;;;;;20.96;54.7373;94953.3;;;;
2020/12/23 18:16:20;;;;;;;5.200001;3.05;;;;;;;20.96;54.7373;94953.3;;;;
2020/12/23 18:17:23;;;;;;;5.200001;3.05;;;;;;;20.96;54.7373;94953.3;;;;
2020/12/23 18:18:23;;;;;;;6.800001;3.65;;;;;;;20.96;54.5498;94949.17;;;;
2020/12/23 18:19:24;;;;;;;6.800001;3.65;;;;;;;20.96;54.5498;94949.17;;;;
2020/12/23 18:20:24;;;;;;;6.800001;3.65;;;;;;;20.96;54.5498;94949.17;;;;
2020/12/23 18:21:25;;;;;;;6.800001;3.65;;;;;;;20.96;54.5498;94949.17;;;;
2020/12/23 18:22:26;;;;;;;6.800001;3.65;;;;;;;20.96;54.5498;94949.17;;;;
2020/12/23 18:23:27;;;;;;;6.800001;3.65;;;;;;;20.96;54.5498;94949.17;;;;
2020/12/23 18:24:28;;;;;;;6.800001;3.65;;;;;;;20.96;54.5498;94949.17;;;;
2020/12/23 18:25:28;;;;;;;6.800001;3.65;;;;;;;20.96;54.5498;94949.17;;;;
2020/12/23 18:26:30;;;;;;;6.800001;3.65;;;;;;;20.96;54.5498;94949.17;;;;
2020/12/23 18:27:30;;;;;;;6.800001;3.65;;;;;;;20.96;54.5498;94949.17;;;;
2020/12/23 18:28:31;;;;;;;5.8;3.65;;;;;;;20.96;54.4502;94938.2;;;;
2020/12/23 18:29:33;;;;;;;5.8;3.65;;;;;;;20.96;54.4502;94938.2;;;;
2020/12/23 18:30:35;;;;;;;5.8;3.65;;;;;;;20.96;54.4502;94938.2;;;;
2020/12/23 18:31:36;;;;;;;5.8;3.65;;;;;;;20.96;54.4502;94938.2;;;;
2020/12/23 18:32:37;;;;;;;5.8;3.65;;;;;;;20.96;54.4502;94938.2;;;;
2020/12/23 18:33:37;;;;;;;5.8;3.65;;;;;;;20.96;54.4502;94938.2;;;;
2020/12/23 18:34:38;;;;;;;5.8;3.65;;;;;;;20.96;54.4502;94938.2;;;;
2020/12/23 18:35:39;;;;;;;5.8;3.65;;;;;;;20.96;54.4502;94938.2;;;;
2020/12/23 18:36:40;;;;;;;5.8;3.65;;;;;;;20.96;54.4502;94938.2;;;;
2020/12/23 18:37:40;;;;;;;5.8;3.65;;;;;;;20.96;54.4502;94938.2;;;;
2020/12/23 18:38:41;;;;;;;5.8;3.65;;;;;;;20.96;54.4502;94938.2;;;;
2020/12/23 18:39:42;;;;;;;5.1;3.5;;;;;;;21.02;54.18164;94931.66;;;;
2020/12/23 18:40:42;;;;;;;5.1;3.5;;;;;;;21.02;54.18164;94931.66;;;;
2020/12/23 18:41:43;;;;;;;5.1;3.5;;;;;;;21.02;54.18164;94931.66;;;;
2020/12/23 18:42:44;;;;;;;5.1;3.5;;;;;;;21.02;54.18164;94931.66;;;;
2020/12/23 18:43:44;;;;;;;5.1;3.5;;;;;;;21.02;54.18164;94931.66;;;;
2020/12/23 18:44:45;;;;;;;5.1;3.5;;;;;;;21.02;54.18164;94931.66;;;;
2020/12/23 18:45:46;;;;;;;5.1;3.5;;;;;;;21.02;54.18164;94931.66;;;;
2020/12/23 18:46:47;;;;;;;5.1;3.5;;;;;;;21.02;54.18164;94931.66;;;;
2020/12/23 18:47:48;;;;;;;5.1;3.5;;;;;;;21.02;54.18164;94931.66;;;;
2020/12/23 18:48:49;;;;;;;5.1;3.5;;;;;;;21.02;54.18164;94931.66;;;;
2020/12/23 18:49:50;;;;;;;4.800001;3.4;;;;;;;21.02;54.06055;94932.47;;;;
2020/12/23 18:50:50;;;;;;;4.800001;3.4;;;;;;;21.02;54.06055;94932.47;;;;
2020/12/23 18:51:51;;;;;;;4.800001;3.4;;;;;;;21.02;54.06055;94932.47;;;;
2020/12/23 18:52:51;;;;;;;4.800001;3.4;;;;;;;21.02;54.06055;94932.47;;;;
2020/12/23 18:53:53;;;;;;;4.800001;3.4;;;;;;;21.02;54.06055;94932.47;;;;
2020/12/23 18:54:53;;;;;;;4.800001;3.4;;;;;;;21.02;54.06055;94932.47;;;;
2020/12/23 18:55:54;;;;;;;4.800001;3.4;;;;;;;21.02;54.06055;94932.47;;;;
2020/12/23 18:56:54;;;;;;;4.800001;3.4;;;;;;;21.02;54.06055;94932.47;;;;
2020/12/23 18:57:55;;;;;;;4.800001;3.4;;;;;;;21.02;54.06055;94932.47;;;;
2020/12/23 18:58:56;;;;;;;4.800001;3.4;;;;;;;21.02;54.06055;94932.47;;;;
2020/12/23 18:59:56;;;;;;;4.800001;3.4;;;;;;;21.02;54.06055;94932.47;;;;
2020/12/23 19:00:57;;;;;;;5;3.3;;;;;;;21.12;53.41113;94921.25;;;;
2020/12/23 19:01:57;;;;;;;5;3.3;;;;;;;21.12;53.41113;94921.25;;;;
2020/12/23 19:02:58;;;;;;;5;3.3;;;;;;;21.12;53.41113;94921.25;;;;
2020/12/23 19:03:59;;;;;;;5;3.3;;;;;;;21.12;53.41113;94921.25;;;;
2020/12/23 19:05:00;;;;;;;5;3.3;;;;;;;21.12;53.41113;94921.25;;;;
2020/12/23 19:06:00;;;;;;;5;3.3;;;;;;;21.12;53.41113;94921.25;;;;
2020/12/23 19:07:01;;;;;;;5;3.3;;;;;;;21.12;53.41113;94921.25;;;;
2020/12/23 19:08:02;;;;;;;5;3.3;;;;;;;21.12;53.41113;94921.25;;;;
2020/12/23 19:09:03;;;;;;;5;3.3;;;;;;;21.12;53.41113;94921.25;;;;
2020/12/23 19:10:06;;;;;;;5;3.3;;;;;;;21.12;53.41113;94921.25;;;;
2020/12/23 19:11:09;;;;;;;5;3.3;;;;;;;21.12;53.41113;94921.25;;;;
2020/12/23 19:12:09;;;;;;;5.15;3.35;;;;;;;21.01;53.33008;94906.3;;;;
2020/12/23 19:13:10;;;;;;;5.15;3.35;;;;;;;21.01;53.33008;94906.3;;;;
2020/12/23 19:14:10;;;;;;;5.15;3.35;;;;;;;21.01;53.33008;94906.3;;;;
2020/12/23 19:15:11;;;;;;;5.15;3.35;;;;;;;21.01;53.33008;94906.3;;;;
2020/12/23 19:16:13;;;;;;;5.15;3.35;;;;;;;21.01;53.33008;94906.3;;;;
2020/12/23 19:17:15;;;;;;;5.15;3.35;;;;;;;21.01;53.33008;94906.3;;;;
2020/12/23 19:18:16;;;;;;;5.15;3.35;;;;;;;21.01;53.33008;94906.3;;;;
2020/12/23 19:19:16;;;;;;;5.15;3.35;;;;;;;21.01;53.33008;94906.3;;;;
2020/12/23 19:20:17;;;;;;;5.15;3.35;;;;;;;21.01;53.33008;94906.3;;;;
2020/12/23 19:21:19;;;;;;;5.15;3.35;;;;;;;21.01;53.33008;94906.3;;;;
2020/12/23 19:22:19;;;;;;;3.85;3.15;;;;;;;20.83;53.59766;94887.3;;;;
2020/12/23 19:23:20;;;;;;;3.85;3.15;;;;;;;20.83;53.59766;94887.3;;;;
2020/12/23 19:24:20;;;;;;;3.85;3.15;;;;;;;20.83;53.59766;94887.3;;;;
2020/12/23 19:25:21;;;;;;;3.85;3.15;;;;;;;20.83;53.59766;94887.3;;;;
2020/12/23 19:26:25;;;;;;;3.85;3.15;;;;;;;20.83;53.59766;94887.3;;;;
2020/12/23 19:27:26;;;;;;;3.85;3.15;;;;;;;20.83;53.59766;94887.3;;;;
2020/12/23 19:28:26;;;;;;;3.85;3.15;;;;;;;20.83;53.59766;94887.3;;;;
2020/12/23 19:29:28;;;;;;;3.85;3.15;;;;;;;20.83;53.59766;94887.3;;;;
2020/12/23 19:30:30;;;;;;;3.85;3.15;;;;;;;20.83;53.59766;94887.3;;;;
2020/12/23 19:31:31;;;;;;;3.85;3.15;;;;;;;20.83;53.59766;94887.3;;;;
2020/12/23 19:32:33;;;;;;;3.85;3.15;;;;;;;20.83;53.59766;94887.3;;;;
2020/12/23 19:33:34;;;;;;;3.9;3.3;;;;;;;20.74;53.82813;94892.07;;;;
2020/12/23 19:34:34;;;;;;;3.9;3.3;;;;;;;20.74;53.82813;94892.07;;;;
2020/12/23 19:35:35;;;;;;;3.9;3.3;;;;;;;20.74;53.82813;94892.07;;;;
2020/12/23 19:36:36;;;;;;;3.9;3.3;;;;;;;20.74;53.82813;94892.07;;;;
2020/12/23 19:37:39;;;;;;;3.9;3.3;;;;;;;20.74;53.82813;94892.07;;;;
2020/12/23 19:38:39;;;;;;;3.9;3.3;;;;;;;20.74;53.82813;94892.07;;;;
2020/12/23 19:39:40;;;;;;;3.9;3.3;;;;;;;20.74;53.82813;94892.07;;;;
2020/12/23 19:40:41;;;;;;;3.9;3.3;;;;;;;20.74;53.82813;94892.07;;;;
2020/12/23 19:41:43;;;;;;;3.9;3.3;;;;;;;20.74;53.82813;94892.07;;;;
2020/12/23 19:42:44;;;;;;;3.9;3.3;;;;;;;20.74;53.82813;94892.07;;;;
2020/12/23 19:43:44;;;;;;;4.9;3.15;;;;;;;20.71;53.85742;94882.09;;;;
2020/12/23 19:44:45;;;;;;;4.9;3.15;;;;;;;20.71;53.85742;94882.09;;;;
2020/12/23 19:45:46;;;;;;;4.9;3.15;;;;;;;20.71;53.85742;94882.09;;;;
2020/12/23 19:46:46;;;;;;;4.9;3.15;;;;;;;20.71;53.85742;94882.09;;;;
2020/12/23 19:47:47;;;;;;;4.9;3.15;;;;;;;20.71;53.85742;94882.09;;;;
2020/12/23 19:48:53;;;;;;;4.9;3.15;;;;;;;20.71;53.85742;94882.09;;;;
2020/12/23 19:49:54;;;;;;;4.9;3.15;;;;;;;20.71;53.85742;94882.09;;;;
2020/12/23 19:50:55;;;;;;;4.9;3.15;;;;;;;20.71;53.85742;94882.09;;;;
2020/12/23 19:51:55;;;;;;;4.9;3.15;;;;;;;20.71;53.85742;94882.09;;;;
2020/12/23 19:52:56;;;;;;;4.9;3.15;;;;;;;20.71;53.85742;94882.09;;;;
2020/12/23 19:53:56;;;;;;;4.9;3.15;;;;;;;20.71;53.85742;94882.09;;;;
2020/12/23 19:54:57;;;;;;;3.6;3.25;;;;;;;20.63;54.0127;94881.06;;;;
2020/12/23 19:55:57;;;;;;;3.6;3.25;;;;;;;20.63;54.0127;94881.06;;;;
2020/12/23 19:56:59;;;;;;;3.6;3.25;;;;;;;20.63;54.0127;94881.06;;;;
2020/12/23 19:58:00;;;;;;;3.6;3.25;;;;;;;20.63;54.0127;94881.06;;;;
2020/12/23 19:59:00;;;;;;;3.6;3.25;;;;;;;20.63;54.0127;94881.06;;;;
2020/12/23 20:00:01;;;;;;;3.6;3.25;;;;;;;20.63;54.0127;94881.06;;;;
2020/12/23 20:01:01;;;;;;;3.6;3.25;;;;;;;20.63;54.0127;94881.06;;;;
2020/12/23 20:02:01;;;;;;;3.6;3.25;;;;;;;20.63;54.0127;94881.06;;;;
2020/12/23 20:03:03;;;;;;;3.6;3.25;;;;;;;20.63;54.0127;94881.06;;;;
2020/12/23 20:04:04;;;;;;;3.6;3.25;;;;;;;20.63;54.0127;94881.06;;;;
2020/12/23 20:05:05;;;;;;;3.7;2.95;;;;;;;20.6;54.09863;94879.74;;;;
2020/12/23 20:06:05;;;;;;;3.7;2.95;;;;;;;20.6;54.09863;94879.74;;;;
2020/12/23 20:07:06;;;;;;;3.7;2.95;;;;;;;20.6;54.09863;94879.74;;;;
2020/12/23 20:08:07;;;;;;;3.7;2.95;;;;;;;20.6;54.09863;94879.74;;;;
2020/12/23 20:09:07;;;;;;;3.7;2.95;;;;;;;20.6;54.09863;94879.74;;;;
2020/12/23 20:10:08;;;;;;;3.7;2.95;;;;;;;20.6;54.09863;94879.74;;;;
2020/12/23 20:11:09;;;;;;;3.7;2.95;;;;;;;20.6;54.09863;94879.74;;;;
2020/12/23 20:12:10;;;;;;;3.7;2.95;;;;;;;20.6;54.09863;94879.74;;;;
2020/12/23 20:13:11;;;;;;;3.7;2.95;;;;;;;20.6;54.09863;94879.74;;;;
2020/12/23 20:14:11;;;;;;;3.7;2.95;;;;;;;20.6;54.09863;94879.74;;;;
2020/12/23 20:15:13;;;;;;;3.7;2.95;;;;;;;20.6;54.09863;94879.74;;;;
2020/12/23 20:16:14;;;;;;;3.6;3;;;;;;;20.51;54.31934;94905.3;;;;
2020/12/23 20:17:16;;;;;;;3.6;3;;;;;;;20.51;54.31934;94905.3;;;;
2020/12/23 20:18:17;;;;;;;3.6;3;;;;;;;20.51;54.31934;94905.3;;;;
2020/12/23 20:19:17;;;;;;;3.6;3;;;;;;;20.51;54.31934;94905.3;;;;
2020/12/23 20:20:19;;;;;;;3.6;3;;;;;;;20.51;54.31934;94905.3;;;;
2020/12/23 20:21:19;;;;;;;3.6;3;;;;;;;20.51;54.31934;94905.3;;;;
2020/12/23 20:22:21;;;;;;;3.6;3;;;;;;;20.51;54.31934;94905.3;;;;
2020/12/23 20:23:21;;;;;;;3.6;3;;;;;;;20.51;54.31934;94905.3;;;;
2020/12/23 20:24:23;;;;;;;3.6;3;;;;;;;20.51;54.31934;94905.3;;;;
2020/12/23 20:25:24;;;;;;;3.6;3;;;;;;;20.51;54.31934;94905.3;;;;
2020/12/23 20:26:27;;;;;;;3.15;2.85;;;;;;;20.49;54.37109;94915.36;;;;
2020/12/23 20:27:28;;;;;;;3.15;2.85;;;;;;;20.49;54.37109;94915.36;;;;
2020/12/23 20:28:28;;;;;;;3.15;2.85;;;;;;;20.49;54.37109;94915.36;;;;
2020/12/23 20:29:29;;;;;;;3.15;2.85;;;;;;;20.49;54.37109;94915.36;;;;
2020/12/23 20:30:30;;;;;;;3.15;2.85;;;;;;;20.49;54.37109;94915.36;;;;
2020/12/23 20:31:31;;;;;;;3.15;2.85;;;;;;;20.49;54.37109;94915.36;;;;
2020/12/23 20:32:31;;;;;;;3.15;2.85;;;;;;;20.49;54.37109;94915.36;;;;
2020/12/23 20:33:32;;;;;;;3.15;2.85;;;;;;;20.49;54.37109;94915.36;;;;
2020/12/23 20:34:33;;;;;;;3.15;2.85;;;;;;;20.49;54.37109;94915.36;;;;
2020/12/23 20:35:36;;;;;;;3.15;2.85;;;;;;;20.49;54.37109;94915.36;;;;
2020/12/23 20:36:37;;;;;;;3.15;2.85;;;;;;;20.49;54.37109;94915.36;;;;
2020/12/23 20:37:39;;;;;;;3.95;2.95;;;;;;;20.43;54.55078;94934.84;;;;
2020/12/23 20:38:40;;;;;;;3.95;2.95;;;;;;;20.43;54.55078;94934.84;;;;
2020/12/23 20:39:40;;;;;;;3.95;2.95;;;;;;;20.43;54.55078;94934.84;;;;
2020/12/23 20:40:43;;;;;;;3.95;2.95;;;;;;;20.43;54.55078;94934.84;;;;
2020/12/23 20:41:43;;;;;;;3.95;2.95;;;;;;;20.43;54.55078;94934.84;;;;
2020/12/23 20:42:44;;;;;;;3.95;2.95;;;;;;;20.43;54.55078;94934.84;;;;
2020/12/23 20:43:44;;;;;;;3.95;2.95;;;;;;;20.43;54.55078;94934.84;;;;
2020/12/23 20:44:45;;;;;;;3.95;2.95;;;;;;;20.43;54.55078;94934.84;;;;
2020/12/23 20:45:45;;;;;;;3.95;2.95;;;;;;;20.43;54.55078;94934.84;;;;
2020/12/23 20:46:46;;;;;;;3.95;2.95;;;;;;;20.43;54.55078;94934.84;;;;
2020/12/23 20:47:47;;;;;;;8.399999;3.6;;;;;;;20.43;55.61914;94952.67;;;;
2020/12/23 20:48:47;;;;;;;8.399999;3.6;;;;;;;20.43;55.61914;94952.67;;;;
2020/12/23 20:49:48;;;;;;;8.399999;3.6;;;;;;;20.43;55.61914;94952.67;;;;
2020/12/23 20:50:49;;;;;;;8.399999;3.6;;;;;;;20.43;55.61914;94952.67;;;;
2020/12/23 20:51:49;;;;;;;8.399999;3.6;;;;;;;20.43;55.61914;94952.67;;;;
2020/12/23 20:52:55;;;;;;;8.399999;3.6;;;;;;;20.43;55.61914;94952.67;;;;
2020/12/23 20:53:56;;;;;;;8.399999;3.6;;;;;;;20.43;55.61914;94952.67;;;;
2020/12/23 20:54:57;;;;;;;8.399999;3.6;;;;;;;20.43;55.61914;94952.67;;;;
2020/12/23 20:55:58;;;;;;;8.399999;3.6;;;;;;;20.43;55.61914;94952.67;;;;
2020/12/23 20:56:59;;;;;;;8.399999;3.6;;;;;;;20.43;55.61914;94952.67;;;;
2020/12/23 20:58:00;;;;;;;8.399999;3.6;;;;;;;20.43;55.61914;94952.67;;;;
2020/12/23 20:59:00;;;;;;;6.05;3.400001;;;;;;;20.53;58.82227;94964.24;;;;
2020/12/23 21:00:01;;;;;;;6.05;3.400001;;;;;;;20.53;58.82227;94964.24;;;;
2020/12/23 21:01:03;;;;;;;6.05;3.400001;;;;;;;20.53;58.82227;94964.24;;;;
2020/12/23 21:02:04;;;;;;;6.05;3.400001;;;;;;;20.53;58.82227;94964.24;;;;
2020/12/23 21:03:04;;;;;;;6.05;3.400001;;;;;;;20.53;58.82227;94964.24;;;;
2020/12/23 21:04:05;;;;;;;6.05;3.400001;;;;;;;20.53;58.82227;94964.24;;;;
2020/12/23 21:05:05;;;;;;;6.05;3.400001;;;;;;;20.53;58.82227;94964.24;;;;
2020/12/23 21:06:06;;;;;;;6.05;3.400001;;;;;;;20.53;58.82227;94964.24;;;;
2020/12/23 21:07:08;;;;;;;6.05;3.400001;;;;;;;20.53;58.82227;94964.24;;;;
2020/12/23 21:08:08;;;;;;;6.05;3.400001;;;;;;;20.53;58.82227;94964.24;;;;
2020/12/23 21:09:09;;;;;;;7.45;3.6;;;;;;;20.61;58.28223;94964.64;;;;
2020/12/23 21:10:10;;;;;;;7.45;3.6;;;;;;;20.61;58.28223;94964.64;;;;
2020/12/23 21:11:10;;;;;;;7.45;3.6;;;;;;;20.61;58.28223;94964.64;;;;
2020/12/23 21:12:13;;;;;;;7.45;3.6;;;;;;;20.61;58.28223;94964.64;;;;
2020/12/23 21:13:14;;;;;;;7.45;3.6;;;;;;;20.61;58.28223;94964.64;;;;
2020/12/23 21:14:14;;;;;;;7.45;3.6;;;;;;;20.61;58.28223;94964.64;;;;
2020/12/23 21:15:16;;;;;;;7.45;3.6;;;;;;;20.61;58.28223;94964.64;;;;
2020/12/23 21:16:16;;;;;;;7.45;3.6;;;;;;;20.61;58.28223;94964.64;;;;
2020/12/23 21:17:17;;;;;;;7.45;3.6;;;;;;;20.61;58.28223;94964.64;;;;
2020/12/23 21:18:21;;;;;;;7.45;3.6;;;;;;;20.61;58.28223;94964.64;;;;
2020/12/23 21:19:22;;;;;;;7.45;3.6;;;;;;;20.61;58.28223;94964.64;;;;
2020/12/23 21:20:23;;;;;;;6.6;3.85;;;;;;;20.65;57.79199;94956.06;;;;
2020/12/23 21:21:23;;;;;;;6.6;3.85;;;;;;;20.65;57.79199;94956.06;;;;
2020/12/23 21:22:23;;;;;;;6.6;3.85;;;;;;;20.65;57.79199;94956.06;;;;
2020/12/23 21:23:24;;;;;;;6.6;3.85;;;;;;;20.65;57.79199;94956.06;;;;
2020/12/23 21:24:24;;;;;;;6.6;3.85;;;;;;;20.65;57.79199;94956.06;;;;
2020/12/23 21:25:25;;;;;;;6.6;3.85;;;;;;;20.65;57.79199;94956.06;;;;
2020/12/23 21:26:26;;;;;;;6.6;3.85;;;;;;;20.65;57.79199;94956.06;;;;
2020/12/23 21:27:26;;;;;;;6.6;3.85;;;;;;;20.65;57.79199;94956.06;;;;
2020/12/23 21:28:26;;;;;;;6.6;3.85;;;;;;;20.65;57.79199;94956.06;;;;
2020/12/23 21:29:27;;;;;;;6.6;3.85;;;;;;;20.65;57.79199;94956.06;;;;
2020/12/23 21:30:28;;;;;;;4.25;2.9;;;;;;;20.69;57.20313;94943.73;;;;
2020/12/23 21:31:29;;;;;;;4.25;2.9;;;;;;;20.69;57.20313;94943.73;;;;
2020/12/23 21:32:30;;;;;;;4.25;2.9;;;;;;;20.69;57.20313;94943.73;;;;
2020/12/23 21:33:31;;;;;;;4.25;2.9;;;;;;;20.69;57.20313;94943.73;;;;
2020/12/23 21:34:32;;;;;;;4.25;2.9;;;;;;;20.69;57.20313;94943.73;;;;
2020/12/23 21:35:32;;;;;;;4.25;2.9;;;;;;;20.69;57.20313;94943.73;;;;
2020/12/23 21:36:33;;;;;;;4.25;2.9;;;;;;;20.69;57.20313;94943.73;;;;
2020/12/23 21:37:34;;;;;;;4.25;2.9;;;;;;;20.69;57.20313;94943.73;;;;
2020/12/23 21:38:34;;;;;;;4.25;2.9;;;;;;;20.69;57.20313;94943.73;;;;
2020/12/23 21:39:35;;;;;;;4.25;2.9;;;;;;;20.69;57.20313;94943.73;;;;
2020/12/23 21:40:36;;;;;;;4.25;2.9;;;;;;;20.69;57.20313;94943.73;;;;
2020/12/23 21:41:36;;;;;;;6.05;3.1;;;;;;;20.69;56.6748;94952.51;;;;
2020/12/23 21:42:37;;;;;;;6.05;3.1;;;;;;;20.69;56.6748;94952.51;;;;
2020/12/23 21:43:37;;;;;;;6.05;3.1;;;;;;;20.69;56.6748;94952.51;;;;
2020/12/23 21:44:38;;;;;;;6.05;3.1;;;;;;;20.69;56.6748;94952.51;;;;
2020/12/23 21:45:38;;;;;;;6.05;3.1;;;;;;;20.69;56.6748;94952.51;;;;
2020/12/23 21:46:39;;;;;;;6.05;3.1;;;;;;;20.69;56.6748;94952.51;;;;
2020/12/23 21:47:40;;;;;;;6.05;3.1;;;;;;;20.69;56.6748;94952.51;;;;
2020/12/23 21:48:41;;;;;;;6.05;3.1;;;;;;;20.69;56.6748;94952.51;;;;
2020/12/23 21:49:42;;;;;;;6.05;3.1;;;;;;;20.69;56.6748;94952.51;;;;
2020/12/23 21:50:43;;;;;;;6.05;3.1;;;;;;;20.69;56.6748;94952.51;;;;
2020/12/23 21:51:45;;;;;;;4.05;2.7;;;;;;;20.74;56.32813;94960.67;;;;
2020/12/23 21:52:45;;;;;;;4.05;2.7;;;;;;;20.74;56.32813;94960.67;;;;
2020/12/23 21:53:50;;;;;;;4.05;2.7;;;;;;;20.74;56.32813;94960.67;;;;
2020/12/23 21:54:52;;;;;;;4.05;2.7;;;;;;;20.74;56.32813;94960.67;;;;
2020/12/23 21:55:53;;;;;;;4.05;2.7;;;;;;;20.74;56.32813;94960.67;;;;
2020/12/23 21:56:54;;;;;;;4.05;2.7;;;;;;;20.74;56.32813;94960.67;;;;
2020/12/23 21:57:57;;;;;;;4.05;2.7;;;;;;;20.74;56.32813;94960.67;;;;
2020/12/23 21:58:57;;;;;;;4.05;2.7;;;;;;;20.74;56.32813;94960.67;;;;
2020/12/23 21:59:58;;;;;;;4.05;2.7;;;;;;;20.74;56.32813;94960.67;;;;
2020/12/23 22:00:58;;;;;;;4.05;2.7;;;;;;;20.74;56.32813;94960.67;;;;
2020/12/23 22:01:59;;;;;;;4.05;2.7;;;;;;;20.74;56.32813;94960.67;;;;
2020/12/23 22:02:59;;;;;;;4;2.7;;;;;;;20.73;56.29395;94980.98;;;;
2020/12/23 22:04:00;;;;;;;4;2.7;;;;;;;20.73;56.29395;94980.98;;;;
2020/12/23 22:05:01;;;;;;;4;2.7;;;;;;;20.73;56.29395;94980.98;;;;
2020/12/23 22:06:03;;;;;;;4;2.7;;;;;;;20.73;56.29395;94980.98;;;;
2020/12/23 22:07:03;;;;;;;4;2.7;;;;;;;20.73;56.29395;94980.98;;;;
2020/12/23 22:08:04;;;;;;;4;2.7;;;;;;;20.73;56.29395;94980.98;;;;
2020/12/23 22:09:05;;;;;;;4;2.7;;;;;;;20.73;56.29395;94980.98;;;;
2020/12/23 22:10:06;;;;;;;4;2.7;;;;;;;20.73;56.29395;94980.98;;;;
2020/12/23 22:11:07;;;;;;;4;2.7;;;;;;;20.73;56.29395;94980.98;;;;
2020/12/23 22:12:08;;;;;;;4;2.7;;;;;;;20.73;56.29395;94980.98;;;;
2020/12/23 22:13:08;;;;;;;4.8;2.8;;;;;;;20.77;56.09082;94952.22;;;;
2020/12/23 22:14:09;;;;;;;4.8;2.8;;;;;;;20.77;56.09082;94952.22;;;;
2020/12/23 22:15:09;;;;;;;4.8;2.8;;;;;;;20.77;56.09082;94952.22;;;;
2020/12/23 22:16:10;;;;;;;4.8;2.8;;;;;;;20.77;56.09082;94952.22;;;;
2020/12/23 22:17:10;;;;;;;4.8;2.8;;;;;;;20.77;56.09082;94952.22;;;;
2020/12/23 22:18:11;;;;;;;4.8;2.8;;;;;;;20.77;56.09082;94952.22;;;;
2020/12/23 22:19:11;;;;;;;4.8;2.8;;;;;;;20.77;56.09082;94952.22;;;;
2020/12/23 22:20:12;;;;;;;4.8;2.8;;;;;;;20.77;56.09082;94952.22;;;;
2020/12/23 22:21:12;;;;;;;4.8;2.8;;;;;;;20.77;56.09082;94952.22;;;;